createdAt,value
2023-02-23T00:01:19.579Z,-0.65
2023-02-23T00:04:48.155Z,-0.67
2023-02-23T00:08:16.043Z,-0.68
2023-02-23T00:11:43.470Z,-0.68
2023-02-23T00:15:13.266Z,-0.70
2023-02-23T00:18:50.339Z,-0.72
2023-02-23T00:22:17.938Z,-0.74
2023-02-23T00:25:46.403Z,-0.75
2023-02-23T00:29:17.545Z,-0.76
2023-02-23T00:32:44.969Z,-0.77
2023-02-23T00:36:14.607Z,-0.78
2023-02-23T00:39:40.044Z,-0.78
2023-02-23T00:43:07.165Z,-0.79
2023-02-23T00:46:34.304Z,-0.80
2023-02-23T00:50:01.529Z,-0.81
2023-02-23T00:53:29.012Z,-0.82
2023-02-23T00:56:56.328Z,-0.84
2023-02-23T01:00:25.657Z,-0.85
2023-02-23T01:03:54.529Z,-0.87
2023-02-23T01:07:25.642Z,-0.87
2023-02-23T01:10:53.928Z,-0.88
2023-02-23T01:14:22.114Z,-0.90
2023-02-23T01:17:49.472Z,-0.91
2023-02-23T01:21:21.448Z,-0.94
2023-02-23T01:24:48.657Z,-0.96
2023-02-23T01:28:15.815Z,-0.98
2023-02-23T01:31:45.883Z,-1.00
2023-02-23T01:35:16.460Z,-1.02
2023-02-23T01:38:43.977Z,-1.03
2023-02-23T01:42:15.035Z,-1.03
2023-02-23T01:45:43.118Z,-1.04
2023-02-23T01:49:15.495Z,-1.03
2023-02-23T01:52:43.619Z,-1.03
2023-02-23T01:56:16.616Z,-1.04
2023-02-23T01:59:46.602Z,-1.05
2023-02-23T02:03:20.202Z,-1.06
2023-02-23T02:06:53.441Z,-1.08
2023-02-23T02:10:38.707Z,-1.10
2023-02-23T02:14:13.470Z,-1.11
2023-02-23T02:17:49.778Z,-1.12
2023-02-23T02:21:44.776Z,-1.14
2023-02-23T02:25:43.333Z,-1.15
2023-02-23T02:29:42.633Z,-1.16
2023-02-23T02:33:26.762Z,-1.17
2023-02-23T02:37:21.288Z,-1.18
2023-02-23T02:40:55.157Z,-1.20
2023-02-23T02:44:28.926Z,-1.23
2023-02-23T02:48:01.148Z,-1.24
2023-02-23T02:51:35.207Z,-1.25
2023-02-23T02:55:12.282Z,-1.25
2023-02-23T02:58:43.552Z,-1.25
2023-02-23T03:02:36.052Z,-1.25
2023-02-23T03:06:21.471Z,-1.24
2023-02-23T03:10:13.246Z,-1.24
2023-02-23T03:14:07.177Z,-1.25
2023-02-23T03:17:58.333Z,-1.25
2023-02-23T03:21:48.132Z,-1.26
2023-02-23T03:25:37.960Z,-1.25
2023-02-23T03:29:31.707Z,-1.26
2023-02-23T03:33:20.372Z,-1.26
2023-02-23T03:37:11.271Z,-1.26
2023-02-23T03:41:00.813Z,-1.26
2023-02-23T03:44:46.001Z,-1.26
2023-02-23T03:48:34.565Z,-1.25
2023-02-23T03:52:24.914Z,-1.25
2023-02-23T03:56:15.945Z,-1.25
2023-02-23T04:00:05.547Z,-1.24
2023-02-23T04:04:02.106Z,-1.26
2023-02-23T04:07:47.831Z,-1.27
2023-02-23T04:11:38.648Z,-1.26
2023-02-23T04:15:12.767Z,-1.26
2023-02-23T04:18:42.636Z,-1.26
2023-02-23T04:22:09.864Z,-1.26
2023-02-23T04:25:37.034Z,-1.25
2023-02-23T04:29:04.183Z,-1.25
2023-02-23T04:32:31.836Z,-1.26
2023-02-23T04:35:59.169Z,-1.28
2023-02-23T04:39:26.450Z,-1.28
2023-02-23T04:42:53.927Z,-1.29
2023-02-23T04:46:21.113Z,-1.30
2023-02-23T04:49:48.742Z,-1.29
2023-02-23T04:53:15.941Z,-1.29
2023-02-23T04:56:43.249Z,-1.30
2023-02-23T05:00:13.252Z,-1.31
2023-02-23T05:03:40.349Z,-1.34
2023-02-23T05:07:07.552Z,-1.35
2023-02-23T05:10:35.085Z,-1.37
2023-02-23T05:14:02.473Z,-1.39
2023-02-23T05:17:29.878Z,-1.42
2023-02-23T05:21:07.801Z,-1.44
2023-02-23T05:24:35.516Z,-1.45
2023-02-23T05:28:02.768Z,-1.46
2023-02-23T05:31:30.455Z,-1.47
2023-02-23T05:34:57.766Z,-1.47
2023-02-23T05:38:24.978Z,-1.48
2023-02-23T05:41:52.634Z,-1.47
2023-02-23T05:45:20.002Z,-1.47
2023-02-23T05:48:47.265Z,-1.46
2023-02-23T05:52:14.344Z,-1.46
2023-02-23T05:55:41.486Z,-1.46
2023-02-23T05:59:08.791Z,-1.45
2023-02-23T06:02:36.580Z,-1.46
2023-02-23T06:06:03.789Z,-1.46
2023-02-23T06:09:30.939Z,-1.44
2023-02-23T06:12:58.340Z,-1.43
2023-02-23T06:16:25.414Z,-1.39
2023-02-23T06:19:52.710Z,-1.36
2023-02-23T06:23:20.211Z,-1.32
2023-02-23T06:26:48.026Z,-1.27
2023-02-23T06:30:16.836Z,-1.21
2023-02-23T06:33:44.022Z,-1.11
2023-02-23T06:37:12.233Z,-0.98
2023-02-23T06:40:41.576Z,-0.82
2023-02-23T06:44:08.968Z,-0.67
2023-02-23T06:47:36.052Z,-0.56
2023-02-23T06:51:03.446Z,-0.44
2023-02-23T06:54:30.595Z,-0.32
2023-02-23T06:57:58.429Z,-0.18
2023-02-23T07:01:25.523Z,-0.04
2023-02-23T07:04:52.740Z,0.13
2023-02-23T07:08:20.541Z,0.30
2023-02-23T07:11:47.683Z,0.48
2023-02-23T07:15:18.656Z,0.66
2023-02-23T07:18:45.896Z,0.80
2023-02-23T07:22:13.226Z,0.89
2023-02-23T07:25:40.680Z,0.98
2023-02-23T07:29:08.263Z,1.13
2023-02-23T07:32:35.814Z,1.28
2023-02-23T07:36:03.402Z,1.40
2023-02-23T07:39:31.174Z,1.56
2023-02-23T07:42:58.620Z,1.68
2023-02-23T07:46:26.090Z,1.75
2023-02-23T07:49:53.486Z,1.82
2023-02-23T07:53:21.098Z,1.95
2023-02-23T07:56:48.331Z,2.06
2023-02-23T08:00:17.723Z,2.15
2023-02-23T08:03:49.895Z,2.19
2023-02-23T08:07:17.290Z,2.20
2023-02-23T08:10:44.667Z,2.19
2023-02-23T08:14:13.145Z,2.19
2023-02-23T08:17:41.396Z,2.18
2023-02-23T08:21:09.109Z,2.23
2023-02-23T08:24:37.063Z,2.28
2023-02-23T08:28:06.973Z,2.42
2023-02-23T08:31:34.412Z,2.54
2023-02-23T08:35:02.846Z,2.69
2023-02-23T08:38:30.369Z,2.79
2023-02-23T08:41:57.533Z,2.92
2023-02-23T08:45:24.626Z,3.04
2023-02-23T08:48:52.575Z,3.20
2023-02-23T08:52:19.931Z,3.26
2023-02-23T08:55:48.094Z,3.36
2023-02-23T08:59:16.787Z,3.47
2023-02-23T09:02:45.448Z,3.61
2023-02-23T09:06:16.496Z,3.76
2023-02-23T09:09:44.216Z,3.88
2023-02-23T09:13:11.473Z,4.03
2023-02-23T09:16:39.038Z,4.20
2023-02-23T09:20:07.210Z,4.43
2023-02-23T09:23:34.434Z,4.67
2023-02-23T09:27:01.643Z,4.85
2023-02-23T09:30:30.333Z,4.99
2023-02-23T09:33:58.211Z,5.11
2023-02-23T09:37:25.768Z,5.25
2023-02-23T09:40:56.051Z,5.39
2023-02-23T09:44:34.149Z,5.55
2023-02-23T09:48:14.062Z,5.64
2023-02-23T09:51:46.598Z,5.66
2023-02-23T09:55:16.446Z,5.71
2023-02-23T09:58:43.954Z,5.75
2023-02-23T10:02:24.227Z,5.81
2023-02-23T10:05:57.084Z,5.90
2023-02-23T10:09:37.437Z,5.98
2023-02-23T10:13:14.704Z,6.10
2023-02-23T10:16:59.724Z,6.22
2023-02-23T10:20:33.316Z,6.34
2023-02-23T10:24:05.103Z,6.41
2023-02-23T10:27:42.049Z,6.46
2023-02-23T10:31:26.430Z,6.51
2023-02-23T10:34:57.055Z,6.54
2023-02-23T10:38:24.287Z,6.56
2023-02-23T10:41:52.180Z,6.67
2023-02-23T10:45:24.550Z,6.73
2023-02-23T10:48:55.788Z,6.82
2023-02-23T10:52:26.310Z,6.93
2023-02-23T10:56:04.591Z,7.04
2023-02-23T10:59:32.008Z,7.15
2023-02-23T11:03:00.706Z,7.21
2023-02-23T11:06:33.455Z,7.22
2023-02-23T11:10:01.651Z,7.24
2023-02-23T11:13:30.854Z,7.31
2023-02-23T11:16:59.037Z,7.29
2023-02-23T11:20:31.799Z,7.30
2023-02-23T11:24:02.938Z,7.29
2023-02-23T11:27:30.519Z,7.27
2023-02-23T11:30:58.015Z,7.28
2023-02-23T11:34:32.175Z,7.34
2023-02-23T11:38:00.251Z,7.39
2023-02-23T11:41:27.607Z,7.45
2023-02-23T11:45:06.205Z,7.58
2023-02-23T11:48:39.400Z,7.75
2023-02-23T11:52:12.890Z,7.85
2023-02-23T11:55:41.012Z,7.98
2023-02-23T11:59:17.759Z,8.10
2023-02-23T12:02:55.374Z,8.24
2023-02-23T12:06:35.330Z,8.35
2023-02-23T12:10:08.698Z,8.52
2023-02-23T12:13:40.180Z,8.70
2023-02-23T12:17:15.495Z,8.82
2023-02-23T12:20:48.639Z,9.03
2023-02-23T12:24:26.671Z,9.14
2023-02-23T12:28:07.631Z,9.15
2023-02-23T12:31:48.922Z,9.17
2023-02-23T12:35:20.254Z,9.20
2023-02-23T12:38:55.743Z,9.36
2023-02-23T12:42:27.460Z,9.44
2023-02-23T12:46:00.957Z,9.52
2023-02-23T12:49:36.226Z,9.58
2023-02-23T12:53:23.920Z,9.61
2023-02-23T12:57:04.683Z,9.69
2023-02-23T13:00:47.409Z,9.77
2023-02-23T13:04:54.566Z,9.90
2023-02-23T13:08:32.916Z,10.01
2023-02-23T13:12:11.821Z,10.05
2023-02-23T13:15:53.979Z,10.19
2023-02-23T13:19:31.225Z,10.31
2023-02-23T13:23:10.435Z,10.37
2023-02-23T13:26:45.497Z,10.40
2023-02-23T13:30:16.460Z,10.45
2023-02-23T13:33:44.613Z,10.41
2023-02-23T13:37:16.474Z,10.45
2023-02-23T13:40:52.213Z,10.47
2023-02-23T13:44:28.602Z,10.52
2023-02-23T13:48:03.893Z,10.56
2023-02-23T13:51:45.197Z,10.54
2023-02-23T13:55:48.286Z,10.57
2023-02-23T13:59:22.411Z,10.59
2023-02-23T14:02:50.158Z,10.54
2023-02-23T14:06:21.738Z,10.52
2023-02-23T14:09:55.647Z,10.48
2023-02-23T14:13:32.213Z,10.40
2023-02-23T14:17:30.717Z,10.36
2023-02-23T14:21:03.405Z,10.30
2023-02-23T14:24:31.072Z,10.22
2023-02-23T14:28:02.673Z,10.13
2023-02-23T14:31:36.113Z,10.07
2023-02-23T14:35:04.925Z,10.03
2023-02-23T14:38:47.918Z,9.95
2023-02-23T14:42:24.942Z,9.88
2023-02-23T14:45:57.569Z,9.83
2023-02-23T14:49:27.892Z,9.84
2023-02-23T14:52:57.212Z,9.87
2023-02-23T14:56:35.505Z,9.94
2023-02-23T15:00:21.290Z,9.97
2023-02-23T15:04:07.949Z,10.00
2023-02-23T15:07:39.367Z,10.02
2023-02-23T15:11:11.958Z,10.03
2023-02-23T15:14:40.150Z,10.04
2023-02-23T15:18:07.469Z,10.06
2023-02-23T15:21:36.212Z,10.07
2023-02-23T15:25:10.884Z,10.05
2023-02-23T15:28:45.702Z,10.00
2023-02-23T15:32:22.032Z,9.90
2023-02-23T15:35:53.072Z,9.79
2023-02-23T15:39:23.338Z,9.66
2023-02-23T15:42:53.995Z,9.54
2023-02-23T15:46:27.743Z,9.44
2023-02-23T15:50:06.250Z,9.34
2023-02-23T15:53:37.345Z,9.27
2023-02-23T15:57:18.724Z,9.19
2023-02-23T16:00:51.493Z,9.11
2023-02-23T16:04:21.879Z,9.02
2023-02-23T16:07:49.087Z,8.95
2023-02-23T16:11:19.480Z,8.85
2023-02-23T16:14:51.177Z,8.75
2023-02-23T16:18:23.164Z,8.66
2023-02-23T16:21:55.174Z,8.58
2023-02-23T16:25:25.627Z,8.49
2023-02-23T16:28:58.207Z,8.40
2023-02-23T16:32:25.732Z,8.34
2023-02-23T16:35:56.058Z,8.29
2023-02-23T16:39:25.505Z,8.25
2023-02-23T16:42:54.037Z,8.23
2023-02-23T16:46:24.625Z,8.19
2023-02-23T16:49:52.436Z,8.17
2023-02-23T16:53:20.023Z,8.16
2023-02-23T16:56:47.814Z,8.14
2023-02-23T17:00:23.888Z,8.11
2023-02-23T17:03:53.252Z,8.11
2023-02-23T17:07:23.838Z,8.09
2023-02-23T17:10:54.282Z,8.08
2023-02-23T17:14:32.064Z,8.05
2023-02-23T17:17:59.953Z,8.04
2023-02-23T17:21:27.115Z,8.03
2023-02-23T17:24:54.312Z,8.02
2023-02-23T17:28:22.145Z,8.02
2023-02-23T17:31:49.921Z,8.00
2023-02-23T17:35:17.318Z,8.00
2023-02-23T17:38:45.321Z,7.98
2023-02-23T17:42:12.592Z,7.96
2023-02-23T17:45:40.049Z,7.94
2023-02-23T17:49:07.731Z,7.91
2023-02-23T17:52:34.990Z,7.88
2023-02-23T17:56:02.800Z,7.84
2023-02-23T17:59:30.033Z,7.81
2023-02-23T18:02:57.499Z,7.81
2023-02-23T18:06:25.066Z,7.80
2023-02-23T18:09:52.616Z,7.79
2023-02-23T18:13:20.507Z,7.78
2023-02-23T18:16:47.737Z,7.76
2023-02-23T18:20:16.258Z,7.74
2023-02-23T18:23:43.584Z,7.73
2023-02-23T18:27:12.719Z,7.72
2023-02-23T18:30:40.986Z,7.71
2023-02-23T18:34:09.034Z,7.70
2023-02-23T18:37:36.807Z,7.67
2023-02-23T18:41:04.227Z,7.64
2023-02-23T18:44:32.947Z,7.58
2023-02-23T18:48:02.387Z,7.53
2023-02-23T18:51:29.909Z,7.51
2023-02-23T18:54:57.296Z,7.49
2023-02-23T18:58:24.412Z,7.47
2023-02-23T19:01:52.824Z,7.45
2023-02-23T19:05:22.091Z,7.41
2023-02-23T19:08:54.298Z,7.39
2023-02-23T19:12:21.666Z,7.35
2023-02-23T19:15:53.688Z,7.31
2023-02-23T19:19:21.661Z,7.27
2023-02-23T19:22:49.832Z,7.22
2023-02-23T19:26:18.801Z,7.18
2023-02-23T19:29:46.739Z,7.12
2023-02-23T19:33:14.312Z,7.07
2023-02-23T19:36:41.515Z,7.03
2023-02-23T19:40:11.112Z,6.99
2023-02-23T19:43:38.954Z,6.94
2023-02-23T19:47:06.187Z,6.91
2023-02-23T19:50:33.514Z,6.89
2023-02-23T19:54:01.334Z,6.86
2023-02-23T19:57:28.830Z,6.84
2023-02-23T20:00:57.501Z,6.81
2023-02-23T20:04:25.026Z,6.80
2023-02-23T20:07:52.754Z,6.79
2023-02-23T20:11:20.346Z,6.80
2023-02-23T20:14:49.682Z,6.78
2023-02-23T20:18:16.745Z,6.78
2023-02-23T20:21:44.140Z,6.78
2023-02-23T20:25:15.708Z,6.78
2023-02-23T20:28:44.852Z,6.78
2023-02-23T20:32:12.386Z,6.77
2023-02-23T20:35:39.770Z,6.76
2023-02-23T20:39:07.168Z,6.75
2023-02-23T20:42:34.508Z,6.74
2023-02-23T20:46:02.885Z,6.71
2023-02-23T20:49:30.757Z,6.70
2023-02-23T20:53:02.556Z,6.69
2023-02-23T20:56:32.900Z,6.67
2023-02-23T21:00:01.692Z,6.66
2023-02-23T21:03:29.164Z,6.64
2023-02-23T21:06:56.257Z,6.62
2023-02-23T21:10:23.466Z,6.60
2023-02-23T21:13:50.860Z,6.59
2023-02-23T21:17:18.430Z,6.58
2023-02-23T21:20:46.305Z,6.58
2023-02-23T21:24:14.955Z,6.60
2023-02-23T21:27:43.281Z,6.61
2023-02-23T21:31:12.714Z,6.62
2023-02-23T21:34:40.025Z,6.64
2023-02-23T21:38:08.376Z,6.64
2023-02-23T21:41:37.858Z,6.64
2023-02-23T21:45:05.723Z,6.63
2023-02-23T21:48:32.920Z,6.62
2023-02-23T21:52:00.037Z,6.60
2023-02-23T21:55:27.361Z,6.60
2023-02-23T21:58:56.178Z,6.59
2023-02-23T22:02:24.136Z,6.59
2023-02-23T22:05:51.985Z,6.59
2023-02-23T22:09:21.799Z,6.59
2023-02-23T22:12:50.209Z,6.60
2023-02-23T22:16:19.646Z,6.60
2023-02-23T22:19:45.793Z,6.59
2023-02-23T22:23:13.986Z,6.59
2023-02-23T22:26:46.835Z,6.59
2023-02-23T22:30:16.082Z,6.59
2023-02-23T22:33:44.733Z,6.60
2023-02-23T22:37:11.885Z,6.61
2023-02-23T22:40:42.324Z,6.62
2023-02-23T22:44:09.984Z,6.64
2023-02-23T22:47:38.880Z,6.66
2023-02-23T22:51:07.807Z,6.68
2023-02-23T22:54:37.323Z,6.70
2023-02-23T22:58:08.370Z,6.72
2023-02-23T23:01:36.401Z,6.75
2023-02-23T23:05:03.779Z,6.78
2023-02-23T23:08:31.486Z,6.80
2023-02-23T23:11:58.772Z,6.82
2023-02-23T23:15:25.950Z,6.85
2023-02-23T23:18:55.664Z,6.86
2023-02-23T23:22:25.354Z,6.87
2023-02-23T23:25:52.048Z,6.88
2023-02-23T23:29:19.617Z,6.90
2023-02-23T23:32:47.160Z,6.92
2023-02-23T23:36:25.705Z,6.94
2023-02-23T23:39:59.382Z,6.95
2023-02-23T23:43:26.772Z,6.96
2023-02-23T23:46:54.061Z,6.97
2023-02-23T23:50:26.939Z,6.97
2023-02-23T23:53:55.067Z,6.97
2023-02-23T23:57:22.454Z,6.97
